Time,TemperatureF,DewpointF,PressureIn,WindDirection,WindDirectionDegrees,WindSpeedMPH,WindSpeedGustMPH,Humidity,HourlyPrecipIn,Conditions,Clouds,dailyrainin,SoftwareType,DateUTC
2015-07-31 00:04:00,72.5,69.3,30.18,East,88,0.0,0.0,90,0.00,,,0.00,VWS V14.01,2015-07-31 05:04:00,
2015-07-31 00:09:00,72.9,69.2,30.18,ENE,72,0.0,5.0,88,0.00,,,0.00,VWS V14.01,2015-07-31 05:09:00,
2015-07-31 00:14:00,73.0,68.4,30.18,ENE,64,2.8,4.4,85,0.00,,,0.00,VWS V14.01,2015-07-31 05:14:00,
2015-07-31 00:19:00,73.4,68.2,30.18,ENE,70,3.3,3.9,84,0.00,,,0.00,VWS V14.01,2015-07-31 05:19:00,
2015-07-31 00:24:00,73.4,67.7,30.18,ENE,69,3.9,3.9,82,0.00,,,0.00,VWS V14.01,2015-07-31 05:24:00,
2015-07-31 00:29:00,73.6,67.3,30.18,ENE,72,3.9,3.9,81,0.00,,,0.00,VWS V14.01,2015-07-31 05:29:00,
2015-07-31 00:34:00,73.8,67.0,30.18,ESE,109,3.3,4.4,79,0.00,,,0.00,VWS V14.01,2015-07-31 05:34:00,
2015-07-31 00:40:00,73.8,66.4,30.18,NE,36,3.3,6.1,78,0.00,,,0.00,VWS V14.01,2015-07-31 05:40:00,
2015-07-31 00:45:00,73.9,66.1,30.18,ENE,65,2.8,3.9,76,0.00,,,0.00,VWS V14.01,2015-07-31 05:45:00,
2015-07-31 00:50:00,73.9,66.1,30.18,ENE,63,0.0,5.0,76,0.00,,,0.00,VWS V14.01,2015-07-31 05:50:00,
2015-07-31 00:55:00,73.8,65.9,30.18,ESE,123,0.0,0.0,76,0.00,,,0.00,VWS V14.01,2015-07-31 05:55:00,
2015-07-31 01:00:00,73.4,65.6,30.18,SE,136,0.0,4.4,76,0.00,,,0.00,VWS V14.01,2015-07-31 06:00:00,
2015-07-31 01:05:00,72.9,65.6,30.15,ENE,63,0.0,3.9,78,0.00,,,0.00,VWS V14.01,2015-07-31 06:05:00,
2015-07-31 01:10:00,72.5,65.2,30.15,NNE,30,0.0,0.0,78,0.00,,,0.00,VWS V14.01,2015-07-31 06:10:00,
2015-07-31 01:15:00,72.1,65.4,30.15,NNE,30,0.0,0.0,79,0.00,,,0.00,VWS V14.01,2015-07-31 06:15:00,
2015-07-31 01:20:00,72.0,65.2,30.15,ENE,60,0.0,0.0,79,0.00,,,0.00,VWS V14.01,2015-07-31 06:20:00,
2015-07-31 01:25:00,71.8,65.1,30.15,East,84,4.4,4.4,79,0.00,,,0.00,VWS V14.01,2015-07-31 06:25:00,
2015-07-31 01:30:00,72.0,65.2,30.15,ENE,71,0.0,3.3,79,0.00,,,0.00,VWS V14.01,2015-07-31 06:30:00,
2015-07-31 01:35:00,72.1,65.4,30.15,NE,52,0.0,2.8,79,0.00,,,0.00,VWS V14.01,2015-07-31 06:35:00,
2015-07-31 01:40:00,72.1,65.4,30.15,NE,39,0.0,3.3,79,0.00,,,0.00,VWS V14.01,2015-07-31 06:40:00,
2015-07-31 01:45:00,72.1,64.9,30.15,NE,36,0.0,0.0,78,0.00,,,0.00,VWS V14.01,2015-07-31 06:45:00,
2015-07-31 01:50:00,72.0,65.2,30.15,NNE,21,0.0,3.9,79,0.00,,,0.00,VWS V14.01,2015-07-31 06:50:00,
2015-07-31 01:55:00,71.6,65.9,30.15,NNE,22,0.0,0.0,82,0.00,,,0.00,VWS V14.01,2015-07-31 06:55:00,
2015-07-31 02:00:00,70.7,65.6,30.15,WSW,250,0.0,2.8,84,0.00,,,0.00,VWS V14.01,2015-07-31 07:00:00,
2015-07-31 02:05:00,70.0,65.8,30.15,WSW,250,0.0,0.0,87,0.00,,,0.00,VWS V14.01,2015-07-31 07:05:00,
2015-07-31 02:10:00,69.4,66.8,30.15,WSW,250,0.0,0.0,91,0.00,,,0.00,VWS V14.01,2015-07-31 07:10:00,
2015-07-31 02:15:00,68.9,66.7,30.15,WSW,250,0.0,0.0,93,0.00,,,0.00,VWS V14.01,2015-07-31 07:15:00,
2015-07-31 02:20:00,68.5,66.8,30.15,WSW,250,0.0,0.0,94,0.00,,,0.00,VWS V14.01,2015-07-31 07:20:00,
2015-07-31 02:25:00,68.4,67.5,30.15,WSW,250,0.0,0.0,97,0.00,,,0.00,VWS V14.01,2015-07-31 07:25:00,
2015-07-31 02:30:00,68.5,68.1,30.15,WSW,250,0.0,0.0,98,0.00,,,0.00,VWS V14.01,2015-07-31 07:30:00,
2015-07-31 02:35:00,68.5,68.5,30.15,WSW,250,0.0,0.0,100,0.00,,,0.00,VWS V14.01,2015-07-31 07:35:00,
2015-07-31 02:40:00,68.9,68.9,30.15,WSW,250,0.0,0.0,100,0.00,,,0.00,VWS V14.01,2015-07-31 07:40:00,
2015-07-31 02:45:00,69.3,68.8,30.15,WSW,250,0.0,0.0,98,0.00,,,0.00,VWS V14.01,2015-07-31 07:45:00,
2015-07-31 02:50:00,69.4,69.0,30.15,WSW,251,0.0,0.0,98,0.00,,,0.00,VWS V14.01,2015-07-31 07:50:00,
2015-07-31 02:55:00,69.6,68.7,30.15,WSW,251,0.0,0.0,97,0.00,,,0.00,VWS V14.01,2015-07-31 07:55:00,
2015-07-31 03:00:00,69.6,68.7,30.15,SE,136,0.0,0.0,97,0.00,,,0.00,VWS V14.01,2015-07-31 08:00:00,
2015-07-31 03:05:00,69.8,68.5,30.15,SE,136,0.0,0.0,96,0.00,,,0.00,VWS V14.01,2015-07-31 08:05:00,
2015-07-31 03:10:00,70.0,69.1,30.15,SE,136,0.0,0.0,97,0.00,,,0.00,VWS V14.01,2015-07-31 08:10:00,
2015-07-31 03:15:00,70.0,69.1,30.15,SE,136,0.0,0.0,97,0.00,,,0.00,VWS V14.01,2015-07-31 08:15:00,
2015-07-31 03:20:00,70.0,68.7,30.15,SE,136,0.0,0.0,96,0.00,,,0.00,VWS V14.01,2015-07-31 08:20:00,
2015-07-31 03:25:00,70.0,68.7,30.15,SE,126,0.0,0.0,96,0.00,,,0.00,VWS V14.01,2015-07-31 08:25:00,
2015-07-31 03:30:00,70.2,68.4,30.15,SE,126,0.0,0.0,94,0.00,,,0.00,VWS V14.01,2015-07-31 08:30:00,
2015-07-31 03:35:00,70.2,67.9,30.15,East,95,0.0,0.0,93,0.00,,,0.00,VWS V14.01,2015-07-31 08:35:00,
2015-07-31 03:40:00,70.3,68.1,30.15,East,94,0.0,0.0,93,0.00,,,0.00,VWS V14.01,2015-07-31 08:40:00,
2015-07-31 03:45:00,70.3,68.6,30.15,East,94,0.0,0.0,94,0.00,,,0.00,VWS V14.01,2015-07-31 08:45:00,
2015-07-31 03:50:00,70.2,68.8,30.15,East,95,0.0,0.0,96,0.00,,,0.00,VWS V14.01,2015-07-31 08:50:00,
2015-07-31 03:55:00,70.0,68.7,30.15,East,94,0.0,0.0,96,0.00,,,0.00,VWS V14.01,2015-07-31 08:55:00,
2015-07-31 04:00:00,70.0,68.7,30.15,East,94,0.0,0.0,96,0.00,,,0.00,VWS V14.01,2015-07-31 09:00:00,
2015-07-31 04:05:00,69.8,68.5,30.15,East,94,0.0,0.0,96,0.00,,,0.00,VWS V14.01,2015-07-31 09:05:00,
2015-07-31 04:10:00,69.8,68.5,30.15,East,94,0.0,0.0,96,0.00,,,0.00,VWS V14.01,2015-07-31 09:10:00,
2015-07-31 04:15:00,69.8,68.9,30.15,East,94,0.0,0.0,97,0.00,,,0.00,VWS V14.01,2015-07-31 09:15:00,
2015-07-31 04:20:00,69.8,68.5,30.15,East,94,0.0,0.0,96,0.00,,,0.00,VWS V14.01,2015-07-31 09:20:00,
2015-07-31 04:25:00,70.0,69.1,30.15,East,94,0.0,0.0,97,0.00,,,0.00,VWS V14.01,2015-07-31 09:25:00,
2015-07-31 04:31:00,70.0,69.1,30.15,ESE,102,2.8,3.3,97,0.00,,,0.00,VWS V14.01,2015-07-31 09:31:00,
2015-07-31 04:36:00,70.3,69.0,30.15,East,100,0.0,3.3,96,0.00,,,0.00,VWS V14.01,2015-07-31 09:36:00,
2015-07-31 04:41:00,70.7,68.5,30.15,ESE,109,2.8,2.8,93,0.00,,,0.00,VWS V14.01,2015-07-31 09:41:00,
2015-07-31 04:46:00,70.9,68.2,30.15,East,100,0.0,2.8,91,0.00,,,0.00,VWS V14.01,2015-07-31 09:46:00,
2015-07-31 04:51:00,71.1,67.9,30.15,East,93,0.0,0.0,90,0.00,,,0.00,VWS V14.01,2015-07-31 09:51:00,
2015-07-31 04:56:00,71.2,68.1,30.15,East,98,0.0,0.0,90,0.00,,,0.00,VWS V14.01,2015-07-31 09:56:00,
2015-07-31 05:01:00,71.4,67.8,30.15,East,85,0.0,0.0,88,0.00,,,0.00,VWS V14.01,2015-07-31 10:01:00,
2015-07-31 05:06:00,71.4,67.8,30.15,East,85,0.0,0.0,88,0.00,,,0.00,VWS V14.01,2015-07-31 10:06:00,
2015-07-31 05:11:00,71.6,67.9,30.15,NE,55,0.0,0.0,88,0.00,,,0.00,VWS V14.01,2015-07-31 10:11:00,
2015-07-31 05:16:00,71.4,67.8,30.15,NE,55,0.0,0.0,88,0.00,,,0.00,VWS V14.01,2015-07-31 10:16:00,
2015-07-31 05:21:00,71.2,67.6,30.15,NE,54,0.0,2.8,88,0.00,,,0.00,VWS V14.01,2015-07-31 10:21:00,
2015-07-31 05:26:00,71.1,67.9,30.15,NE,54,0.0,0.0,90,0.00,,,0.00,VWS V14.01,2015-07-31 10:26:00,
2015-07-31 05:31:00,70.7,68.0,30.15,NE,54,0.0,0.0,91,0.00,,,0.00,VWS V14.01,2015-07-31 10:31:00,
2015-07-31 05:36:00,70.5,68.3,30.15,NE,54,0.0,0.0,93,0.00,,,0.00,VWS V14.01,2015-07-31 10:36:00,
2015-07-31 05:41:00,70.2,67.9,30.15,NE,54,0.0,0.0,93,0.00,,,0.00,VWS V14.01,2015-07-31 10:41:00,
2015-07-31 05:46:00,69.8,68.0,30.15,NE,54,0.0,0.0,94,0.00,,,0.00,VWS V14.01,2015-07-31 10:46:00,
2015-07-31 05:51:00,69.8,68.0,30.15,NE,55,0.0,0.0,94,0.00,,,0.00,VWS V14.01,2015-07-31 10:51:00,
2015-07-31 05:56:00,69.8,68.5,30.15,NE,55,0.0,0.0,96,0.00,,,0.00,VWS V14.01,2015-07-31 10:56:00,
2015-07-31 06:01:00,69.8,68.5,30.18,NE,55,0.0,0.0,96,0.00,,,0.00,VWS V14.01,2015-07-31 11:01:00,
2015-07-31 06:06:00,69.8,68.9,30.18,NE,55,0.0,0.0,97,0.00,,,0.00,VWS V14.01,2015-07-31 11:06:00,
2015-07-31 06:11:00,69.8,68.9,30.18,NE,55,0.0,0.0,97,0.00,,,0.00,VWS V14.01,2015-07-31 11:11:00,
2015-07-31 06:16:00,69.6,69.2,30.18,NE,55,0.0,0.0,98,0.00,,,0.00,VWS V14.01,2015-07-31 11:16:00,
2015-07-31 06:21:00,69.6,69.2,30.18,NNE,23,0.0,0.0,98,0.00,,,0.00,VWS V14.01,2015-07-31 11:21:00,
2015-07-31 06:26:00,70.0,69.1,30.18,ESE,110,0.0,0.0,97,0.00,,,0.00,VWS V14.01,2015-07-31 11:26:00,
2015-07-31 06:31:00,70.2,68.8,30.18,ESE,109,0.0,0.0,96,0.00,,,0.00,VWS V14.01,2015-07-31 11:31:00,
2015-07-31 06:36:00,70.3,69.0,30.18,ESE,109,0.0,0.0,96,0.00,,,0.00,VWS V14.01,2015-07-31 11:36:00,
2015-07-31 06:41:00,70.3,69.0,30.18,ESE,109,0.0,0.0,96,0.00,,,0.00,VWS V14.01,2015-07-31 11:41:00,
2015-07-31 06:46:00,70.3,69.0,30.18,SSW,199,0.0,0.0,96,0.00,,,0.00,VWS V14.01,2015-07-31 11:46:00,
2015-07-31 06:51:00,70.3,68.6,30.18,ENE,74,0.0,0.0,94,0.00,,,0.00,VWS V14.01,2015-07-31 11:51:00,
2015-07-31 06:56:00,70.3,68.6,30.18,ENE,74,0.0,0.0,94,0.00,,,0.00,VWS V14.01,2015-07-31 11:56:00,
2015-07-31 07:01:00,70.3,69.0,30.18,ENE,75,0.0,0.0,96,0.00,,,0.00,VWS V14.01,2015-07-31 12:01:00,
2015-07-31 07:06:00,70.3,69.0,30.18,ENE,75,0.0,0.0,96,0.00,,,0.00,VWS V14.01,2015-07-31 12:06:00,
2015-07-31 07:12:00,70.7,68.9,30.18,ENE,58,0.0,0.0,94,0.00,,,0.00,VWS V14.01,2015-07-31 12:12:00,
2015-07-31 07:17:00,70.9,69.1,30.18,NNE,22,0.0,0.0,94,0.00,,,0.00,VWS V14.01,2015-07-31 12:17:00,
2015-07-31 07:22:00,71.2,69.4,30.18,NNE,19,0.0,0.0,94,0.00,,,0.00,VWS V14.01,2015-07-31 12:22:00,
2015-07-31 07:27:00,71.4,69.2,30.18,ENE,71,0.0,3.3,93,0.00,,,0.00,VWS V14.01,2015-07-31 12:27:00,
2015-07-31 07:32:00,71.8,69.1,30.18,ESE,104,0.0,2.8,91,0.00,,,0.00,VWS V14.01,2015-07-31 12:32:00,
2015-07-31 07:37:00,72.1,68.9,30.18,East,93,0.0,0.0,90,0.00,,,0.00,VWS V14.01,2015-07-31 12:37:00,
2015-07-31 07:42:00,72.1,69.4,30.18,East,96,0.0,2.8,91,0.00,,,0.00,VWS V14.01,2015-07-31 12:42:00,
2015-07-31 07:47:00,72.5,68.3,30.18,SSE,148,0.0,0.0,87,0.00,,,0.00,VWS V14.01,2015-07-31 12:47:00,
2015-07-31 07:52:00,73.0,67.8,30.18,NE,45,2.8,3.9,84,0.00,,,0.00,VWS V14.01,2015-07-31 12:52:00,
2015-07-31 07:57:00,73.6,67.9,30.18,East,88,3.3,4.4,82,0.00,,,0.00,VWS V14.01,2015-07-31 12:57:00,
2015-07-31 08:02:00,74.5,68.2,30.18,East,83,0.0,2.8,81,0.00,,,0.00,VWS V14.01,2015-07-31 13:02:00,
2015-07-31 08:07:00,74.7,66.2,30.18,East,97,3.3,5.0,75,0.00,,,0.00,VWS V14.01,2015-07-31 13:07:00,
2015-07-31 08:12:00,74.7,66.8,30.18,East,79,3.3,3.9,76,0.00,,,0.00,VWS V14.01,2015-07-31 13:12:00,
2015-07-31 08:17:00,74.8,65.8,30.18,SE,130,2.8,5.0,74,0.00,,,0.00,VWS V14.01,2015-07-31 13:17:00,
2015-07-31 08:22:00,75.6,65.3,30.18,SE,138,5.0,5.0,71,0.00,,,0.00,VWS V14.01,2015-07-31 13:22:00,
2015-07-31 08:27:00,76.1,65.2,30.18,ESE,104,4.4,4.4,69,0.00,,,0.00,VWS V14.01,2015-07-31 13:27:00,
2015-07-31 08:32:00,75.9,65.1,30.18,ESE,114,2.8,3.9,69,0.00,,,0.00,VWS V14.01,2015-07-31 13:32:00,
2015-07-31 08:37:00,75.6,64.1,30.18,East,83,3.3,6.1,68,0.00,,,0.00,VWS V14.01,2015-07-31 13:37:00,
2015-07-31 08:42:00,75.0,64.2,30.18,ENE,65,3.3,4.4,69,0.00,,,0.00,VWS V14.01,2015-07-31 13:42:00,
2015-07-31 08:47:00,74.7,64.5,30.18,ESE,123,0.0,0.0,71,0.00,,,0.00,VWS V14.01,2015-07-31 13:47:00,
2015-07-31 08:52:00,75.0,66.0,30.18,East,98,2.8,3.3,74,0.00,,,0.00,VWS V14.01,2015-07-31 13:52:00,
2015-07-31 08:57:00,76.1,65.2,30.18,ESE,108,3.9,4.4,69,0.00,,,0.00,VWS V14.01,2015-07-31 13:57:00,
2015-07-31 09:02:00,77.4,64.5,30.21,East,99,4.4,5.0,65,0.00,,,0.00,VWS V14.01,2015-07-31 14:02:00,
2015-07-31 09:07:00,78.6,64.4,30.21,ESE,115,2.8,4.4,62,0.00,,,0.00,VWS V14.01,2015-07-31 14:07:00,
2015-07-31 09:12:00,79.3,61.5,30.21,ENE,71,4.4,5.0,54,0.00,,,0.00,VWS V14.01,2015-07-31 14:12:00,
2015-07-31 09:17:00,80.1,62.1,30.21,East,98,3.3,7.8,54,0.00,,,0.00,VWS V14.01,2015-07-31 14:17:00,
2015-07-31 09:22:00,80.4,63.2,30.21,NE,43,3.3,6.1,56,0.00,,,0.00,VWS V14.01,2015-07-31 14:22:00,
2015-07-31 09:27:00,81.1,62.4,30.21,SSE,165,3.9,6.1,53,0.00,,,0.00,VWS V14.01,2015-07-31 14:27:00,
2015-07-31 09:32:00,81.5,61.1,30.21,WSW,243,2.8,8.9,50,0.00,,,0.00,VWS V14.01,2015-07-31 14:32:00,
2015-07-31 09:38:00,81.7,60.4,30.21,ENE,68,0.0,6.1,49,0.00,,,0.00,VWS V14.01,2015-07-31 14:38:00,
2015-07-31 09:43:00,81.7,59.5,30.21,SW,234,4.4,7.2,47,0.00,,,0.00,VWS V14.01,2015-07-31 14:43:00,
2015-07-31 09:48:00,81.9,60.6,30.21,NNE,28,3.9,6.7,49,0.00,,,0.00,VWS V14.01,2015-07-31 14:48:00,
2015-07-31 09:53:00,81.9,59.7,30.21,SE,128,0.0,7.8,47,0.00,,,0.00,VWS V14.01,2015-07-31 14:53:00,
2015-07-31 09:58:00,82.2,60.9,30.21,ENE,77,2.8,4.4,49,0.00,,,0.00,VWS V14.01,2015-07-31 14:58:00,
2015-07-31 10:03:00,82.8,60.5,30.21,SE,144,2.8,4.4,47,0.00,,,0.00,VWS V14.01,2015-07-31 15:03:00,
2015-07-31 10:08:00,83.5,60.3,30.21,South,188,2.8,6.1,46,0.00,,,0.00,VWS V14.01,2015-07-31 15:08:00,
2015-07-31 10:13:00,83.7,58.6,30.21,South,183,3.3,10.0,43,0.00,,,0.00,VWS V14.01,2015-07-31 15:13:00,
2015-07-31 10:18:00,83.3,57.3,30.18,South,173,4.4,10.3,41,0.00,,,0.00,VWS V14.01,2015-07-31 15:18:00,
2015-07-31 10:23:00,83.3,57.3,30.18,SW,220,6.7,6.7,41,0.00,,,0.00,VWS V14.01,2015-07-31 15:23:00,
2015-07-31 10:28:00,83.7,59.5,30.18,SSE,149,5.0,7.2,44,0.00,,,0.00,VWS V14.01,2015-07-31 15:28:00,
2015-07-31 10:33:00,84.0,59.8,30.21,SSW,210,3.9,7.8,44,0.00,,,0.00,VWS V14.01,2015-07-31 15:33:00,
2015-07-31 10:38:00,84.0,58.9,30.21,SSE,153,3.9,7.8,43,0.00,,,0.00,VWS V14.01,2015-07-31 15:38:00,
2015-07-31 10:43:00,84.4,60.2,30.21,SSE,165,3.9,5.0,44,0.00,,,0.00,VWS V14.01,2015-07-31 15:43:00,
2015-07-31 10:48:00,85.1,60.8,30.21,East,94,7.2,7.2,44,0.00,,,0.00,VWS V14.01,2015-07-31 15:48:00,
2015-07-31 10:53:00,85.1,60.8,30.21,South,177,3.9,7.8,44,0.00,,,0.00,VWS V14.01,2015-07-31 15:53:00,
2015-07-31 10:58:00,84.6,59.4,30.21,SW,220,3.9,8.3,43,0.00,,,0.00,VWS V14.01,2015-07-31 15:58:00,
2015-07-31 11:03:00,84.0,59.8,30.21,NE,43,0.0,6.7,44,0.00,,,0.00,VWS V14.01,2015-07-31 16:03:00,
2015-07-31 11:08:00,83.8,59.7,30.21,South,179,2.8,5.0,44,0.00,,,0.00,VWS V14.01,2015-07-31 16:08:00,
2015-07-31 11:13:00,84.6,60.3,30.21,SE,124,5.0,5.0,44,0.00,,,0.00,VWS V14.01,2015-07-31 16:13:00,
2015-07-31 11:18:00,85.3,61.0,30.21,SSW,211,3.9,6.1,44,0.00,,,0.00,VWS V14.01,2015-07-31 16:18:00,
2015-07-31 11:23:00,85.8,62.4,30.21,SE,133,3.3,3.9,46,0.00,,,0.00,VWS V14.01,2015-07-31 16:23:00,
2015-07-31 11:28:00,86.5,61.2,30.21,West,280,6.7,7.8,43,0.00,,,0.00,VWS V14.01,2015-07-31 16:28:00,
2015-07-31 11:34:00,86.5,55.9,30.21,South,179,5.0,9.4,35,0.00,,,0.00,VWS V14.01,2015-07-31 16:34:00,
2015-07-31 11:39:00,85.5,56.1,30.21,South,191,5.0,7.8,37,0.00,,,0.00,VWS V14.01,2015-07-31 16:39:00,
2015-07-31 11:44:00,85.1,59.9,30.21,SSE,149,0.0,6.7,43,0.00,,,0.00,VWS V14.01,2015-07-31 16:44:00,
2015-07-31 11:49:00,84.9,59.7,30.18,SSW,192,4.4,5.5,43,0.00,,,0.00,VWS V14.01,2015-07-31 16:49:00,
2015-07-31 11:54:00,84.6,59.4,30.18,West,263,10.0,10.3,43,0.00,,,0.00,VWS V14.01,2015-07-31 16:54:00,
2015-07-31 11:59:00,84.4,60.2,30.18,WSW,239,6.7,10.8,44,0.00,,,0.00,VWS V14.01,2015-07-31 16:59:00,
2015-07-31 12:04:00,84.4,60.2,30.18,West,270,10.0,10.8,44,0.00,,,0.00,VWS V14.01,2015-07-31 17:04:00,
2015-07-31 12:09:00,85.1,60.8,30.18,SW,232,7.2,9.4,44,0.00,,,0.00,VWS V14.01,2015-07-31 17:09:00,